This is the latest recevied weather packets stored in our database for station/object E24CR-1. If no packets are shown the sender has not sent any weather packets the latest 10 day(s).
| Time | Temp. | Humidity | Pressure | Rain* | Wind** | Luminosity | Snow |
|---|---|---|---|---|---|---|---|
| 1777904524 | 31.11° C | 44% | 951 hPa | - | - | 0 W/m² | - |
| 1777903900 | 31.67° C | 43% | 951 hPa | - | - | 0 W/m² | - |
| 1777903276 | 31.67° C | 43% | 951 hPa | - | - | 0 W/m² | - |
| 1777902651 | 31.67° C | 41% | 951 hPa | - | - | 0 W/m² | - |
| 1777902026 | 31.67° C | 42% | 951 hPa | - | - | 0 W/m² | - |
| 1777901401 | 31.67° C | 42% | 950 hPa | - | - | 0 W/m² | - |
| 1777900777 | 31.11° C | 43% | 950 hPa | - | - | 0 W/m² | - |
| 1777900153 | 31.11° C | 44% | 950 hPa | - | - | 0 W/m² | - |
| 1777899529 | 31.67° C | 41% | 950 hPa | - | - | 0 W/m² | - |
| 1777898905 | 31.67° C | 41% | 949 hPa | - | - | 0 W/m² | - |
| 1777898281 | 31.11° C | 42% | 949 hPa | - | - | 0 W/m² | - |
| 1777897655 | 31.11° C | 42% | 949 hPa | - | - | 0 W/m² | - |
| 1777897031 | 31.11° C | 42% | 949 hPa | - | - | 0 W/m² | - |
| 1777896407 | 31.11° C | 42% | 949 hPa | - | - | 0 W/m² | - |
| 1777895783 | 31.67° C | 41% | 949 hPa | - | - | 0 W/m² | - |
| 1777895159 | 31.11° C | 44% | 949 hPa | - | - | 0 W/m² | - |
| 1777894535 | 30.56° C | 46% | 949 hPa | - | - | 0 W/m² | - |
| 1777893912 | 31.11° C | 45% | 948 hPa | - | - | 0 W/m² | - |
| 1777893286 | 32.22° C | 41% | 948 hPa | - | - | 0 W/m² | - |
| 1777892662 | 35.56° C | 32% | 948 hPa | - | - | 0 W/m² | - |
| 1777892038 | 36.11° C | 28% | 948 hPa | - | - | 0 W/m² | - |
| 1777891413 | 36.67° C | 28% | 948 hPa | - | - | 0 W/m² | - |
| 1777890789 | 37.22° C | 27% | 948 hPa | - | - | 0 W/m² | - |
| 1777890165 | 37.22° C | 27% | 947 hPa | - | - | 0 W/m² | - |
| 1777889541 | 37.78° C | 26% | 947 hPa | - | - | 0 W/m² | - |
* Rain since midnight (hover to see other rain measurements)
** Current wind speed in m/s (hover to see current wind gust speed)